sensor_id;sensor_type;location;lat;lon;timestamp;P1;durP1;ratioP1;P2;durP2;ratioP2
20069;SDS011;10195;50.868;4.382;2023-04-03T00:01:46;12.67;;;8.63;;
20069;SDS011;10195;50.868;4.382;2023-04-03T00:04:12;14.37;;;7.63;;
20069;SDS011;10195;50.868;4.382;2023-04-03T00:06:38;12.93;;;7.67;;
20069;SDS011;10195;50.868;4.382;2023-04-03T00:09:03;15.40;;;8.10;;
20069;SDS011;10195;50.868;4.382;2023-04-03T00:11:29;13.70;;;8.30;;
20069;SDS011;10195;50.868;4.382;2023-04-03T00:13:55;11.07;;;7.40;;
20069;SDS011;10195;50.868;4.382;2023-04-03T00:16:20;13.83;;;7.87;;
20069;SDS011;10195;50.868;4.382;2023-04-03T00:18:46;13.23;;;8.00;;
20069;SDS011;10195;50.868;4.382;2023-04-03T00:21:12;11.97;;;7.57;;
20069;SDS011;10195;50.868;4.382;2023-04-03T00:23:38;11.60;;;7.43;;
20069;SDS011;10195;50.868;4.382;2023-04-03T00:26:04;15.80;;;7.67;;
20069;SDS011;10195;50.868;4.382;2023-04-03T00:28:30;12.03;;;7.37;;
20069;SDS011;10195;50.868;4.382;2023-04-03T00:30:55;14.57;;;7.07;;
20069;SDS011;10195;50.868;4.382;2023-04-03T00:33:21;14.93;;;7.63;;
20069;SDS011;10195;50.868;4.382;2023-04-03T00:35:47;16.43;;;7.67;;
20069;SDS011;10195;50.868;4.382;2023-04-03T00:38:13;12.27;;;6.90;;
20069;SDS011;10195;50.868;4.382;2023-04-03T00:40:41;11.57;;;6.67;;
20069;SDS011;10195;50.868;4.382;2023-04-03T00:43:13;9.00;;;6.57;;
20069;SDS011;10195;50.868;4.382;2023-04-03T00:45:47;10.60;;;6.50;;
20069;SDS011;10195;50.868;4.382;2023-04-03T00:48:16;14.43;;;7.50;;
20069;SDS011;10195;50.868;4.382;2023-04-03T00:50:50;8.83;;;6.43;;
20069;SDS011;10195;50.868;4.382;2023-04-03T00:53:19;12.27;;;6.90;;
20069;SDS011;10195;50.868;4.382;2023-04-03T00:55:57;14.43;;;7.17;;
20069;SDS011;10195;50.868;4.382;2023-04-03T00:58:34;13.73;;;7.20;;
20069;SDS011;10195;50.868;4.382;2023-04-03T01:01:05;13.97;;;7.43;;
20069;SDS011;10195;50.868;4.382;2023-04-03T01:03:33;15.30;;;7.50;;
20069;SDS011;10195;50.868;4.382;2023-04-03T01:05:59;11.20;;;6.73;;
20069;SDS011;10195;50.868;4.382;2023-04-03T01:08:25;12.87;;;7.00;;
20069;SDS011;10195;50.868;4.382;2023-04-03T01:10:51;9.43;;;6.30;;
20069;SDS011;10195;50.868;4.382;2023-04-03T01:13:24;10.77;;;6.30;;
20069;SDS011;10195;50.868;4.382;2023-04-03T01:15:53;11.47;;;6.77;;
20069;SDS011;10195;50.868;4.382;2023-04-03T01:18:19;13.23;;;7.00;;
20069;SDS011;10195;50.868;4.382;2023-04-03T01:21:35;8.53;;;6.33;;
20069;SDS011;10195;50.868;4.382;2023-04-03T01:26:43;10.30;;;6.23;;
20069;SDS011;10195;50.868;4.382;2023-04-03T01:29:09;10.20;;;6.30;;
20069;SDS011;10195;50.868;4.382;2023-04-03T01:31:47;9.17;;;6.57;;
20069;SDS011;10195;50.868;4.382;2023-04-03T01:34:17;8.97;;;6.10;;
20069;SDS011;10195;50.868;4.382;2023-04-03T01:36:43;10.10;;;6.60;;
20069;SDS011;10195;50.868;4.382;2023-04-03T01:39:09;13.07;;;6.63;;
20069;SDS011;10195;50.868;4.382;2023-04-03T01:41:36;12.60;;;6.70;;
20069;SDS011;10195;50.868;4.382;2023-04-03T01:44:01;9.90;;;6.40;;
20069;SDS011;10195;50.868;4.382;2023-04-03T01:46:28;12.93;;;6.73;;
20069;SDS011;10195;50.868;4.382;2023-04-03T01:48:54;13.30;;;7.43;;
20069;SDS011;10195;50.868;4.382;2023-04-03T01:51:20;11.70;;;6.90;;
20069;SDS011;10195;50.868;4.382;2023-04-03T01:53:46;12.40;;;6.77;;
20069;SDS011;10195;50.868;4.382;2023-04-03T01:56:11;14.63;;;7.37;;
20069;SDS011;10195;50.868;4.382;2023-04-03T01:58:37;14.67;;;7.33;;
20069;SDS011;10195;50.868;4.382;2023-04-03T02:01:03;8.23;;;6.50;;
20069;SDS011;10195;50.868;4.382;2023-04-03T02:03:29;9.73;;;6.70;;
20069;SDS011;10195;50.868;4.382;2023-04-03T02:05:55;12.00;;;6.97;;
20069;SDS011;10195;50.868;4.382;2023-04-03T02:08:24;15.07;;;7.70;;
20069;SDS011;10195;50.868;4.382;2023-04-03T02:10:50;9.63;;;7.10;;
20069;SDS011;10195;50.868;4.382;2023-04-03T02:13:16;10.70;;;7.10;;
20069;SDS011;10195;50.868;4.382;2023-04-03T02:15:42;10.30;;;6.23;;
20069;SDS011;10195;50.868;4.382;2023-04-03T02:18:08;14.37;;;6.83;;
20069;SDS011;10195;50.868;4.382;2023-04-03T02:20:34;9.90;;;6.93;;
20069;SDS011;10195;50.868;4.382;2023-04-03T02:23:00;13.67;;;6.40;;
20069;SDS011;10195;50.868;4.382;2023-04-03T02:25:26;10.83;;;6.97;;
20069;SDS011;10195;50.868;4.382;2023-04-03T02:27:52;11.80;;;6.87;;
20069;SDS011;10195;50.868;4.382;2023-04-03T02:30:17;11.80;;;6.60;;
20069;SDS011;10195;50.868;4.382;2023-04-03T02:32:43;11.13;;;6.57;;
20069;SDS011;10195;50.868;4.382;2023-04-03T02:35:10;12.53;;;6.57;;
20069;SDS011;10195;50.868;4.382;2023-04-03T02:37:36;11.03;;;6.80;;
20069;SDS011;10195;50.868;4.382;2023-04-03T02:40:03;13.93;;;6.53;;
20069;SDS011;10195;50.868;4.382;2023-04-03T02:42:30;11.93;;;6.70;;
20069;SDS011;10195;50.868;4.382;2023-04-03T02:44:56;16.93;;;7.33;;
20069;SDS011;10195;50.868;4.382;2023-04-03T02:47:21;9.73;;;6.30;;
20069;SDS011;10195;50.868;4.382;2023-04-03T02:49:47;12.33;;;6.90;;
20069;SDS011;10195;50.868;4.382;2023-04-03T02:52:13;9.30;;;6.33;;
20069;SDS011;10195;50.868;4.382;2023-04-03T02:54:39;12.70;;;6.20;;
20069;SDS011;10195;50.868;4.382;2023-04-03T02:57:05;8.93;;;6.70;;
20069;SDS011;10195;50.868;4.382;2023-04-03T02:59:34;11.23;;;7.23;;
20069;SDS011;10195;50.868;4.382;2023-04-03T03:02:05;13.23;;;6.80;;
20069;SDS011;10195;50.868;4.382;2023-04-03T03:04:34;13.37;;;6.00;;
20069;SDS011;10195;50.868;4.382;2023-04-03T03:07:00;11.50;;;6.53;;
20069;SDS011;10195;50.868;4.382;2023-04-03T03:09:26;9.83;;;6.80;;
20069;SDS011;10195;50.868;4.382;2023-04-03T03:11:52;9.93;;;7.17;;
20069;SDS011;10195;50.868;4.382;2023-04-03T03:14:18;13.60;;;7.20;;
20069;SDS011;10195;50.868;4.382;2023-04-03T03:16:44;12.90;;;6.53;;
20069;SDS011;10195;50.868;4.382;2023-04-03T03:19:09;11.27;;;6.67;;
20069;SDS011;10195;50.868;4.382;2023-04-03T03:21:35;14.07;;;7.07;;
20069;SDS011;10195;50.868;4.382;2023-04-03T03:24:01;11.17;;;6.80;;
20069;SDS011;10195;50.868;4.382;2023-04-03T03:26:27;9.73;;;7.00;;
20069;SDS011;10195;50.868;4.382;2023-04-03T03:28:52;12.77;;;7.57;;
20069;SDS011;10195;50.868;4.382;2023-04-03T03:31:18;12.80;;;7.37;;
20069;SDS011;10195;50.868;4.382;2023-04-03T03:33:44;10.77;;;7.10;;
20069;SDS011;10195;50.868;4.382;2023-04-03T03:36:10;13.30;;;7.73;;
20069;SDS011;10195;50.868;4.382;2023-04-03T03:38:35;13.60;;;7.43;;
20069;SDS011;10195;50.868;4.382;2023-04-03T03:41:01;9.67;;;7.40;;
20069;SDS011;10195;50.868;4.382;2023-04-03T03:43:27;13.37;;;8.03;;
20069;SDS011;10195;50.868;4.382;2023-04-03T03:45:52;12.87;;;7.37;;
20069;SDS011;10195;50.868;4.382;2023-04-03T03:48:19;11.50;;;7.17;;
20069;SDS011;10195;50.868;4.382;2023-04-03T03:50:45;12.03;;;7.20;;
20069;SDS011;10195;50.868;4.382;2023-04-03T03:53:11;11.83;;;7.27;;
20069;SDS011;10195;50.868;4.382;2023-04-03T03:55:37;10.97;;;7.67;;
20069;SDS011;10195;50.868;4.382;2023-04-03T03:58:02;11.13;;;7.70;;
20069;SDS011;10195;50.868;4.382;2023-04-03T04:00:28;14.47;;;7.53;;
20069;SDS011;10195;50.868;4.382;2023-04-03T04:02:55;12.67;;;7.17;;
20069;SDS011;10195;50.868;4.382;2023-04-03T04:05:21;16.20;;;7.30;;
20069;SDS011;10195;50.868;4.382;2023-04-03T04:07:46;15.83;;;7.67;;
20069;SDS011;10195;50.868;4.382;2023-04-03T04:10:12;12.97;;;7.40;;
20069;SDS011;10195;50.868;4.382;2023-04-03T04:12:38;17.13;;;8.07;;
20069;SDS011;10195;50.868;4.382;2023-04-03T04:15:04;12.20;;;7.13;;
20069;SDS011;10195;50.868;4.382;2023-04-03T04:17:30;11.43;;;7.30;;
20069;SDS011;10195;50.868;4.382;2023-04-03T04:19:56;14.57;;;7.90;;
20069;SDS011;10195;50.868;4.382;2023-04-03T04:22:22;13.37;;;7.37;;
20069;SDS011;10195;50.868;4.382;2023-04-03T04:24:47;13.30;;;7.67;;
20069;SDS011;10195;50.868;4.382;2023-04-03T04:27:13;11.17;;;7.00;;
20069;SDS011;10195;50.868;4.382;2023-04-03T04:29:40;18.53;;;7.97;;
20069;SDS011;10195;50.868;4.382;2023-04-03T04:32:06;13.60;;;8.07;;
20069;SDS011;10195;50.868;4.382;2023-04-03T04:34:32;11.47;;;7.23;;
20069;SDS011;10195;50.868;4.382;2023-04-03T04:36:57;13.07;;;7.90;;
20069;SDS011;10195;50.868;4.382;2023-04-03T04:39:23;12.20;;;7.27;;
20069;SDS011;10195;50.868;4.382;2023-04-03T04:41:49;10.60;;;6.73;;
20069;SDS011;10195;50.868;4.382;2023-04-03T04:44:14;15.40;;;7.30;;
20069;SDS011;10195;50.868;4.382;2023-04-03T04:46:40;13.17;;;7.27;;
20069;SDS011;10195;50.868;4.382;2023-04-03T04:49:06;14.60;;;7.70;;
20069;SDS011;10195;50.868;4.382;2023-04-03T04:51:32;11.10;;;7.27;;
20069;SDS011;10195;50.868;4.382;2023-04-03T04:53:57;13.63;;;7.03;;
20069;SDS011;10195;50.868;4.382;2023-04-03T04:56:23;10.37;;;7.03;;
20069;SDS011;10195;50.868;4.382;2023-04-03T04:58:49;12.73;;;7.83;;
20069;SDS011;10195;50.868;4.382;2023-04-03T05:01:15;12.07;;;7.03;;
20069;SDS011;10195;50.868;4.382;2023-04-03T05:03:40;11.90;;;7.67;;
20069;SDS011;10195;50.868;4.382;2023-04-03T05:06:06;15.53;;;8.17;;
20069;SDS011;10195;50.868;4.382;2023-04-03T05:08:32;12.73;;;8.00;;
20069;SDS011;10195;50.868;4.382;2023-04-03T05:10:58;17.60;;;7.80;;
20069;SDS011;10195;50.868;4.382;2023-04-03T05:13:23;13.20;;;8.03;;
20069;SDS011;10195;50.868;4.382;2023-04-03T05:15:49;16.13;;;7.93;;
20069;SDS011;10195;50.868;4.382;2023-04-03T05:18:15;14.27;;;8.13;;
20069;SDS011;10195;50.868;4.382;2023-04-03T05:20:41;17.40;;;9.00;;
20069;SDS011;10195;50.868;4.382;2023-04-03T05:23:08;15.97;;;8.80;;
20069;SDS011;10195;50.868;4.382;2023-04-03T05:25:37;12.77;;;8.30;;
20069;SDS011;10195;50.868;4.382;2023-04-03T05:28:03;18.87;;;9.40;;
20069;SDS011;10195;50.868;4.382;2023-04-03T05:30:28;16.23;;;9.63;;
20069;SDS011;10195;50.868;4.382;2023-04-03T05:32:54;15.00;;;9.40;;
20069;SDS011;10195;50.868;4.382;2023-04-03T05:35:20;16.00;;;9.27;;
20069;SDS011;10195;50.868;4.382;2023-04-03T05:37:46;15.60;;;8.70;;
20069;SDS011;10195;50.868;4.382;2023-04-03T05:40:11;14.33;;;8.73;;
20069;SDS011;10195;50.868;4.382;2023-04-03T05:42:37;13.90;;;7.93;;
20069;SDS011;10195;50.868;4.382;2023-04-03T05:45:03;13.83;;;8.27;;
20069;SDS011;10195;50.868;4.382;2023-04-03T05:47:29;13.30;;;8.87;;
20069;SDS011;10195;50.868;4.382;2023-04-03T05:49:55;21.30;;;9.30;;
20069;SDS011;10195;50.868;4.382;2023-04-03T05:52:23;20.67;;;11.10;;
20069;SDS011;10195;50.868;4.382;2023-04-03T05:54:51;20.30;;;10.80;;
20069;SDS011;10195;50.868;4.382;2023-04-03T05:57:17;17.57;;;11.03;;
20069;SDS011;10195;50.868;4.382;2023-04-03T05:59:44;18.67;;;11.87;;
20069;SDS011;10195;50.868;4.382;2023-04-03T06:02:21;19.07;;;11.77;;
20069;SDS011;10195;50.868;4.382;2023-04-03T06:04:47;16.87;;;10.97;;
20069;SDS011;10195;50.868;4.382;2023-04-03T06:07:17;15.37;;;10.87;;
20069;SDS011;10195;50.868;4.382;2023-04-03T06:09:46;22.97;;;10.37;;
20069;SDS011;10195;50.868;4.382;2023-04-03T06:12:12;16.97;;;10.10;;
20069;SDS011;10195;50.868;4.382;2023-04-03T06:14:38;17.07;;;10.30;;
20069;SDS011;10195;50.868;4.382;2023-04-03T06:17:04;20.20;;;10.27;;
20069;SDS011;10195;50.868;4.382;2023-04-03T06:19:31;14.23;;;9.30;;
20069;SDS011;10195;50.868;4.382;2023-04-03T06:21:56;15.17;;;8.30;;
20069;SDS011;10195;50.868;4.382;2023-04-03T06:24:22;12.33;;;8.77;;
20069;SDS011;10195;50.868;4.382;2023-04-03T06:26:50;13.17;;;8.67;;
20069;SDS011;10195;50.868;4.382;2023-04-03T06:29:17;10.97;;;7.80;;
20069;SDS011;10195;50.868;4.382;2023-04-03T06:31:44;14.37;;;7.70;;
20069;SDS011;10195;50.868;4.382;2023-04-03T06:34:11;13.90;;;8.17;;
20069;SDS011;10195;50.868;4.382;2023-04-03T06:36:37;15.53;;;7.67;;
20069;SDS011;10195;50.868;4.382;2023-04-03T06:39:04;8.13;;;5.77;;
20069;SDS011;10195;50.868;4.382;2023-04-03T06:41:30;8.10;;;5.57;;
20069;SDS011;10195;50.868;4.382;2023-04-03T06:43:56;14.87;;;6.60;;
20069;SDS011;10195;50.868;4.382;2023-04-03T06:46:23;15.30;;;8.33;;
20069;SDS011;10195;50.868;4.382;2023-04-03T06:48:49;14.20;;;7.40;;
20069;SDS011;10195;50.868;4.382;2023-04-03T06:53:52;13.67;;;7.57;;
20069;SDS011;10195;50.868;4.382;2023-04-03T06:56:20;7.37;;;5.13;;
20069;SDS011;10195;50.868;4.382;2023-04-03T06:58:46;10.37;;;6.00;;
20069;SDS011;10195;50.868;4.382;2023-04-03T07:01:12;18.33;;;8.57;;
20069;SDS011;10195;50.868;4.382;2023-04-03T07:03:39;11.17;;;7.87;;
20069;SDS011;10195;50.868;4.382;2023-04-03T07:06:05;12.10;;;7.60;;
20069;SDS011;10195;50.868;4.382;2023-04-03T07:08:32;15.93;;;7.87;;
20069;SDS011;10195;50.868;4.382;2023-04-03T07:10:58;10.13;;;7.27;;
20069;SDS011;10195;50.868;4.382;2023-04-03T07:13:24;13.07;;;7.50;;
20069;SDS011;10195;50.868;4.382;2023-04-03T07:15:50;14.43;;;7.77;;
20069;SDS011;10195;50.868;4.382;2023-04-03T07:18:16;13.50;;;7.30;;
20069;SDS011;10195;50.868;4.382;2023-04-03T07:20:44;14.10;;;7.67;;
20069;SDS011;10195;50.868;4.382;2023-04-03T07:23:10;14.40;;;7.70;;
20069;SDS011;10195;50.868;4.382;2023-04-03T07:25:36;12.10;;;7.00;;
20069;SDS011;10195;50.868;4.382;2023-04-03T07:28:06;10.17;;;7.50;;
20069;SDS011;10195;50.868;4.382;2023-04-03T07:30:33;12.23;;;7.30;;
20069;SDS011;10195;50.868;4.382;2023-04-03T07:32:58;12.90;;;6.40;;
20069;SDS011;10195;50.868;4.382;2023-04-03T07:35:24;11.57;;;6.97;;
20069;SDS011;10195;50.868;4.382;2023-04-03T07:37:50;15.33;;;7.20;;
20069;SDS011;10195;50.868;4.382;2023-04-03T07:40:15;13.47;;;6.83;;
20069;SDS011;10195;50.868;4.382;2023-04-03T07:42:41;17.80;;;7.10;;
20069;SDS011;10195;50.868;4.382;2023-04-03T07:45:07;10.33;;;6.87;;
20069;SDS011;10195;50.868;4.382;2023-04-03T07:47:33;11.23;;;6.30;;
20069;SDS011;10195;50.868;4.382;2023-04-03T07:49:58;9.73;;;6.57;;
20069;SDS011;10195;50.868;4.382;2023-04-03T07:52:24;8.97;;;7.00;;
20069;SDS011;10195;50.868;4.382;2023-04-03T07:54:50;10.23;;;6.10;;
20069;SDS011;10195;50.868;4.382;2023-04-03T07:57:16;11.47;;;7.30;;
20069;SDS011;10195;50.868;4.382;2023-04-03T07:59:41;11.20;;;6.57;;
20069;SDS011;10195;50.868;4.382;2023-04-03T08:02:11;9.43;;;5.87;;
20069;SDS011;10195;50.868;4.382;2023-04-03T08:04:37;10.57;;;6.63;;
20069;SDS011;10195;50.868;4.382;2023-04-03T08:07:03;12.63;;;6.07;;
20069;SDS011;10195;50.868;4.382;2023-04-03T08:09:29;11.37;;;6.30;;
20069;SDS011;10195;50.868;4.382;2023-04-03T08:11:54;9.93;;;6.70;;
20069;SDS011;10195;50.868;4.382;2023-04-03T08:14:20;13.67;;;6.13;;
20069;SDS011;10195;50.868;4.382;2023-04-03T08:16:46;10.57;;;5.97;;
20069;SDS011;10195;50.868;4.382;2023-04-03T08:19:13;13.23;;;6.20;;
20069;SDS011;10195;50.868;4.382;2023-04-03T08:21:40;13.97;;;6.60;;
20069;SDS011;10195;50.868;4.382;2023-04-03T08:24:06;9.77;;;6.20;;
20069;SDS011;10195;50.868;4.382;2023-04-03T08:26:33;16.07;;;6.50;;
20069;SDS011;10195;50.868;4.382;2023-04-03T08:28:59;13.73;;;6.10;;
20069;SDS011;10195;50.868;4.382;2023-04-03T08:31:24;12.60;;;6.47;;
20069;SDS011;10195;50.868;4.382;2023-04-03T08:33:50;12.40;;;6.23;;
20069;SDS011;10195;50.868;4.382;2023-04-03T08:36:20;16.63;;;5.83;;
20069;SDS011;10195;50.868;4.382;2023-04-03T08:38:48;7.13;;;5.30;;
20069;SDS011;10195;50.868;4.382;2023-04-03T08:41:16;11.30;;;5.70;;
20069;SDS011;10195;50.868;4.382;2023-04-03T08:44:07;14.60;;;5.77;;
20069;SDS011;10195;50.868;4.382;2023-04-03T08:49:32;10.97;;;5.40;;
20069;SDS011;10195;50.868;4.382;2023-04-03T08:52:01;10.97;;;5.27;;
20069;SDS011;10195;50.868;4.382;2023-04-03T08:54:33;10.13;;;5.70;;
20069;SDS011;10195;50.868;4.382;2023-04-03T08:57:02;9.13;;;5.53;;
20069;SDS011;10195;50.868;4.382;2023-04-03T08:59:32;10.00;;;5.33;;
20069;SDS011;10195;50.868;4.382;2023-04-03T09:02:00;6.90;;;4.47;;
20069;SDS011;10195;50.868;4.382;2023-04-03T09:04:32;12.47;;;5.13;;
20069;SDS011;10195;50.868;4.382;2023-04-03T09:07:01;9.50;;;5.23;;
20069;SDS011;10195;50.868;4.382;2023-04-03T09:09:39;9.37;;;5.20;;
20069;SDS011;10195;50.868;4.382;2023-04-03T09:20:53;13.40;;;4.90;;
20069;SDS011;10195;50.868;4.382;2023-04-03T09:26:01;7.13;;;3.83;;
20069;SDS011;10195;50.868;4.382;2023-04-03T09:28:31;8.50;;;3.13;;
20069;SDS011;10195;50.868;4.382;2023-04-03T09:31:01;9.77;;;4.13;;
20069;SDS011;10195;50.868;4.382;2023-04-03T09:33:39;6.83;;;3.60;;
20069;SDS011;10195;50.868;4.382;2023-04-03T09:36:05;10.03;;;3.33;;
20069;SDS011;10195;50.868;4.382;2023-04-03T09:38:32;7.43;;;3.20;;
20069;SDS011;10195;50.868;4.382;2023-04-03T09:41:05;5.80;;;3.13;;
20069;SDS011;10195;50.868;4.382;2023-04-03T09:43:38;7.93;;;3.50;;
20069;SDS011;10195;50.868;4.382;2023-04-03T09:46:18;6.03;;;3.07;;
20069;SDS011;10195;50.868;4.382;2023-04-03T09:48:57;6.70;;;1.77;;
20069;SDS011;10195;50.868;4.382;2023-04-03T09:51:28;5.87;;;3.37;;
20069;SDS011;10195;50.868;4.382;2023-04-03T09:53:55;11.77;;;3.60;;
20069;SDS011;10195;50.868;4.382;2023-04-03T09:56:23;5.00;;;2.67;;
20069;SDS011;10195;50.868;4.382;2023-04-03T10:01:27;5.07;;;2.70;;
20069;SDS011;10195;50.868;4.382;2023-04-03T10:06:40;6.23;;;2.77;;
20069;SDS011;10195;50.868;4.382;2023-04-03T10:11:50;5.63;;;2.87;;
20069;SDS011;10195;50.868;4.382;2023-04-03T10:14:26;6.10;;;2.90;;
20069;SDS011;10195;50.868;4.382;2023-04-03T10:38:28;4.50;;;2.17;;
20069;SDS011;10195;50.868;4.382;2023-04-03T10:44:08;7.57;;;2.37;;
20069;SDS011;10195;50.868;4.382;2023-04-03T10:47:08;5.17;;;2.20;;
20069;SDS011;10195;50.868;4.382;2023-04-03T10:49:45;13.83;;;2.13;;
20069;SDS011;10195;50.868;4.382;2023-04-03T10:52:24;8.57;;;2.57;;
20069;SDS011;10195;50.868;4.382;2023-04-03T10:57:30;8.70;;;2.20;;
20069;SDS011;10195;50.868;4.382;2023-04-03T11:00:01;6.10;;;2.10;;
20069;SDS011;10195;50.868;4.382;2023-04-03T11:02:36;2.87;;;1.83;;
20069;SDS011;10195;50.868;4.382;2023-04-03T11:05:17;4.20;;;1.60;;
20069;SDS011;10195;50.868;4.382;2023-04-03T11:07:59;3.93;;;1.80;;
20069;SDS011;10195;50.868;4.382;2023-04-03T11:10:42;3.67;;;1.90;;
20069;SDS011;10195;50.868;4.382;2023-04-03T11:13:13;4.30;;;1.67;;
20069;SDS011;10195;50.868;4.382;2023-04-03T11:15:42;4.10;;;1.80;;
20069;SDS011;10195;50.868;4.382;2023-04-03T11:18:21;6.37;;;2.20;;
20069;SDS011;10195;50.868;4.382;2023-04-03T11:21:12;6.73;;;2.67;;
20069;SDS011;10195;50.868;4.382;2023-04-03T11:23:47;8.00;;;2.77;;
20069;SDS011;10195;50.868;4.382;2023-04-03T11:26:14;5.90;;;2.33;;
20069;SDS011;10195;50.868;4.382;2023-04-03T11:28:46;5.93;;;2.20;;
20069;SDS011;10195;50.868;4.382;2023-04-03T11:36:59;4.70;;;2.20;;
20069;SDS011;10195;50.868;4.382;2023-04-03T11:39:28;5.70;;;2.33;;
20069;SDS011;10195;50.868;4.382;2023-04-03T11:42:12;4.60;;;2.00;;
20069;SDS011;10195;50.868;4.382;2023-04-03T11:44:39;4.27;;;2.10;;
20069;SDS011;10195;50.868;4.382;2023-04-03T11:47:05;3.47;;;2.00;;
20069;SDS011;10195;50.868;4.382;2023-04-03T11:57:47;5.37;;;2.47;;
20069;SDS011;10195;50.868;4.382;2023-04-03T12:16:06;3.60;;;2.00;;
20069;SDS011;10195;50.868;4.382;2023-04-03T12:19:01;7.17;;;2.00;;
20069;SDS011;10195;50.868;4.382;2023-04-03T12:46:19;2.50;;;1.80;;
20069;SDS011;10195;50.868;4.382;2023-04-03T12:48:48;6.67;;;1.80;;
20069;SDS011;10195;50.868;4.382;2023-04-03T12:51:41;3.83;;;1.80;;
20069;SDS011;10195;50.868;4.382;2023-04-03T12:54:14;2.70;;;1.60;;
20069;SDS011;10195;50.868;4.382;2023-04-03T12:56:43;4.43;;;1.80;;
20069;SDS011;10195;50.868;4.382;2023-04-03T13:01:59;3.80;;;1.80;;
20069;SDS011;10195;50.868;4.382;2023-04-03T13:04:26;2.90;;;1.67;;
20069;SDS011;10195;50.868;4.382;2023-04-03T13:06:54;7.10;;;1.77;;
20069;SDS011;10195;50.868;4.382;2023-04-03T13:09:22;5.00;;;1.60;;
20069;SDS011;10195;50.868;4.382;2023-04-03T13:14:39;2.70;;;1.57;;
20069;SDS011;10195;50.868;4.382;2023-04-03T13:19:36;5.30;;;1.90;;
20069;SDS011;10195;50.868;4.382;2023-04-03T13:22:04;3.40;;;1.67;;
20069;SDS011;10195;50.868;4.382;2023-04-03T13:24:33;4.00;;;1.87;;
20069;SDS011;10195;50.868;4.382;2023-04-03T13:27:02;3.10;;;1.73;;
20069;SDS011;10195;50.868;4.382;2023-04-03T13:29:30;2.17;;;1.60;;
20069;SDS011;10195;50.868;4.382;2023-04-03T13:32:00;2.47;;;1.67;;
20069;SDS011;10195;50.868;4.382;2023-04-03T13:34:29;3.43;;;1.70;;
20069;SDS011;10195;50.868;4.382;2023-04-03T13:37:05;5.70;;;1.90;;
20069;SDS011;10195;50.868;4.382;2023-04-03T13:39:34;1.90;;;1.40;;
20069;SDS011;10195;50.868;4.382;2023-04-03T13:42:24;3.47;;;2.07;;
20069;SDS011;10195;50.868;4.382;2023-04-03T13:47:40;2.80;;;1.80;;
20069;SDS011;10195;50.868;4.382;2023-04-03T13:52:52;3.73;;;1.50;;
20069;SDS011;10195;50.868;4.382;2023-04-03T13:57:49;4.33;;;1.70;;
20069;SDS011;10195;50.868;4.382;2023-04-03T14:03:23;4.40;;;1.80;;
20069;SDS011;10195;50.868;4.382;2023-04-03T14:05:57;3.50;;;2.10;;
20069;SDS011;10195;50.868;4.382;2023-04-03T14:08:23;4.43;;;2.20;;
20069;SDS011;10195;50.868;4.382;2023-04-03T14:10:49;3.63;;;2.10;;
20069;SDS011;10195;50.868;4.382;2023-04-03T14:13:17;5.67;;;2.40;;
20069;SDS011;10195;50.868;4.382;2023-04-03T14:15:46;2.60;;;1.83;;
20069;SDS011;10195;50.868;4.382;2023-04-03T14:18:14;3.07;;;1.83;;
20069;SDS011;10195;50.868;4.382;2023-04-03T14:20:42;6.70;;;2.20;;
20069;SDS011;10195;50.868;4.382;2023-04-03T14:23:08;8.63;;;2.23;;
20069;SDS011;10195;50.868;4.382;2023-04-03T14:25:35;3.23;;;1.90;;
20069;SDS011;10195;50.868;4.382;2023-04-03T14:28:01;5.00;;;1.73;;
20069;SDS011;10195;50.868;4.382;2023-04-03T14:30:40;3.17;;;1.70;;
20069;SDS011;10195;50.868;4.382;2023-04-03T14:33:05;3.57;;;1.60;;
20069;SDS011;10195;50.868;4.382;2023-04-03T14:35:32;4.57;;;1.60;;
20069;SDS011;10195;50.868;4.382;2023-04-03T14:37:57;2.83;;;1.93;;
20069;SDS011;10195;50.868;4.382;2023-04-03T14:40:26;5.57;;;1.63;;
20069;SDS011;10195;50.868;4.382;2023-04-03T14:42:52;2.17;;;1.80;;
20069;SDS011;10195;50.868;4.382;2023-04-03T14:45:21;4.37;;;2.00;;
20069;SDS011;10195;50.868;4.382;2023-04-03T14:47:49;4.50;;;2.20;;
20069;SDS011;10195;50.868;4.382;2023-04-03T14:50:22;8.27;;;2.17;;
20069;SDS011;10195;50.868;4.382;2023-04-03T14:52:49;5.03;;;2.00;;
20069;SDS011;10195;50.868;4.382;2023-04-03T14:55:19;4.10;;;1.77;;
20069;SDS011;10195;50.868;4.382;2023-04-03T14:57:47;5.63;;;2.13;;
20069;SDS011;10195;50.868;4.382;2023-04-03T15:00:18;4.43;;;2.00;;
20069;SDS011;10195;50.868;4.382;2023-04-03T15:02:46;5.83;;;2.30;;
20069;SDS011;10195;50.868;4.382;2023-04-03T15:05:12;3.97;;;1.37;;
20069;SDS011;10195;50.868;4.382;2023-04-03T15:07:40;4.70;;;2.13;;
20069;SDS011;10195;50.868;4.382;2023-04-03T15:10:30;2.67;;;1.70;;
20069;SDS011;10195;50.868;4.382;2023-04-03T15:12:56;5.27;;;1.80;;
20069;SDS011;10195;50.868;4.382;2023-04-03T15:15:23;5.87;;;1.90;;
20069;SDS011;10195;50.868;4.382;2023-04-03T15:17:52;3.27;;;1.90;;
20069;SDS011;10195;50.868;4.382;2023-04-03T15:20:20;1.97;;;1.70;;
20069;SDS011;10195;50.868;4.382;2023-04-03T15:22:48;7.00;;;1.90;;
20069;SDS011;10195;50.868;4.382;2023-04-03T15:25:14;4.87;;;2.30;;
20069;SDS011;10195;50.868;4.382;2023-04-03T15:27:40;5.37;;;1.80;;
20069;SDS011;10195;50.868;4.382;2023-04-03T15:30:07;2.83;;;1.60;;
20069;SDS011;10195;50.868;4.382;2023-04-03T15:32:39;2.97;;;1.70;;
20069;SDS011;10195;50.868;4.382;2023-04-03T15:35:05;3.63;;;1.70;;
20069;SDS011;10195;50.868;4.382;2023-04-03T15:37:31;7.27;;;2.20;;
20069;SDS011;10195;50.868;4.382;2023-04-03T15:39:56;2.23;;;1.60;;
20069;SDS011;10195;50.868;4.382;2023-04-03T15:42:22;4.30;;;1.60;;
20069;SDS011;10195;50.868;4.382;2023-04-03T15:44:48;3.00;;;1.60;;
20069;SDS011;10195;50.868;4.382;2023-04-03T15:47:14;7.87;;;1.93;;
20069;SDS011;10195;50.868;4.382;2023-04-03T15:49:40;3.57;;;1.87;;
20069;SDS011;10195;50.868;4.382;2023-04-03T15:52:06;5.23;;;2.00;;
20069;SDS011;10195;50.868;4.382;2023-04-03T15:54:33;9.93;;;1.80;;
20069;SDS011;10195;50.868;4.382;2023-04-03T15:56:58;10.50;;;2.23;;
20069;SDS011;10195;50.868;4.382;2023-04-03T15:59:25;3.27;;;2.00;;
20069;SDS011;10195;50.868;4.382;2023-04-03T16:01:51;4.83;;;1.90;;
20069;SDS011;10195;50.868;4.382;2023-04-03T16:04:18;6.13;;;2.03;;
20069;SDS011;10195;50.868;4.382;2023-04-03T16:06:45;2.80;;;1.90;;
20069;SDS011;10195;50.868;4.382;2023-04-03T16:09:11;3.67;;;1.63;;
20069;SDS011;10195;50.868;4.382;2023-04-03T16:11:37;3.03;;;1.90;;
20069;SDS011;10195;50.868;4.382;2023-04-03T16:14:06;7.37;;;2.27;;
20069;SDS011;10195;50.868;4.382;2023-04-03T16:16:32;2.57;;;2.00;;
20069;SDS011;10195;50.868;4.382;2023-04-03T16:18:58;3.87;;;1.97;;
20069;SDS011;10195;50.868;4.382;2023-04-03T16:21:24;3.90;;;2.00;;
20069;SDS011;10195;50.868;4.382;2023-04-03T16:23:51;3.43;;;2.00;;
20069;SDS011;10195;50.868;4.382;2023-04-03T16:26:17;4.03;;;2.23;;
20069;SDS011;10195;50.868;4.382;2023-04-03T16:28:43;3.60;;;2.20;;
20069;SDS011;10195;50.868;4.382;2023-04-03T16:31:09;3.33;;;1.90;;
20069;SDS011;10195;50.868;4.382;2023-04-03T16:33:35;4.67;;;2.37;;
20069;SDS011;10195;50.868;4.382;2023-04-03T16:36:02;3.50;;;2.10;;
20069;SDS011;10195;50.868;4.382;2023-04-03T16:38:29;5.37;;;2.50;;
20069;SDS011;10195;50.868;4.382;2023-04-03T16:40:55;5.57;;;2.30;;
20069;SDS011;10195;50.868;4.382;2023-04-03T16:43:25;5.17;;;2.70;;
20069;SDS011;10195;50.868;4.382;2023-04-03T16:45:51;5.60;;;2.47;;
20069;SDS011;10195;50.868;4.382;2023-04-03T16:48:16;4.97;;;2.40;;
20069;SDS011;10195;50.868;4.382;2023-04-03T16:50:45;9.03;;;2.47;;
20069;SDS011;10195;50.868;4.382;2023-04-03T16:53:13;4.00;;;2.00;;
20069;SDS011;10195;50.868;4.382;2023-04-03T16:55:38;6.80;;;2.17;;